createdAt,value
2023-03-18T18:18:26.657Z,68.00
2023-03-18T18:23:33.500Z,67.90
2023-03-18T18:28:39.706Z,68.90
2023-03-18T18:33:50.049Z,69.10
2023-03-18T18:38:55.318Z,69.30
2023-03-18T18:44:00.399Z,69.30
2023-03-18T18:49:08.323Z,69.30
2023-03-18T18:54:14.068Z,69.30
2023-03-18T18:59:27.062Z,69.30
2023-03-18T19:04:35.147Z,69.30
2023-03-18T19:09:40.255Z,69.40
2023-03-18T19:14:45.324Z,69.40
2023-03-18T19:19:53.383Z,69.40
2023-03-18T19:24:58.786Z,69.20
2023-03-18T19:30:06.175Z,69.30
2023-03-18T19:35:16.641Z,69.20
2023-03-18T19:40:29.499Z,69.30
2023-03-18T19:45:35.715Z,69.30
2023-03-18T19:50:44.931Z,69.40
2023-03-18T19:55:52.400Z,69.30
2023-03-18T20:00:58.140Z,69.30
2023-03-18T20:06:05.971Z,69.10
2023-03-18T20:11:15.913Z,69.20
2023-03-18T20:16:22.033Z,69.20
2023-03-18T20:21:32.477Z,69.20
2023-03-18T20:26:37.893Z,69.10
2023-03-18T20:31:43.123Z,69.00
2023-03-18T20:36:50.922Z,68.90
2023-03-18T20:41:56.095Z,68.80
2023-03-18T20:47:01.353Z,68.80
2023-03-18T20:52:09.262Z,68.60
2023-03-18T20:57:15.018Z,68.40
2023-03-18T21:02:38.795Z,68.20
2023-03-18T21:07:47.572Z,68.10
2023-03-18T21:12:52.990Z,68.10
2023-03-18T21:17:58.480Z,67.90
2023-03-18T21:23:06.477Z,67.90
2023-03-18T21:28:13.528Z,68.00
2023-03-18T21:33:22.992Z,68.10
2023-03-18T21:38:31.980Z,67.80
2023-03-18T21:43:38.245Z,67.80
2023-03-18T21:48:43.374Z,67.60
2023-03-18T21:53:52.421Z,67.50
2023-03-18T21:58:57.890Z,67.60
2023-03-18T22:04:03.031Z,67.30
2023-03-18T22:09:10.813Z,68.10
2023-03-18T22:14:16.425Z,67.30
2023-03-18T22:19:21.809Z,67.30
2023-03-18T22:24:29.617Z,67.30
2023-03-18T22:29:34.703Z,68.10
2023-03-18T22:34:39.804Z,67.40
2023-03-18T22:39:47.489Z,67.50
2023-03-18T22:44:52.652Z,67.40
